Time;durP1;ratioP1;P1;durP2;ratioP2;P2;SDS_P1;SDS_P2;PMS_P1;PMS_P2;Temp;Humidity;BMP_temperature;BMP_pressure;BME280_temperature;BME280_humidity;BME280_pressure;Samples;Min_cycle;Max_cycle;Signal;HPM_P1;HPM_P2
2022/06/09 00:01:21;;;;;;;6.90;1.50;;;25.40;91.90;;;;;;5111570;28;20055;-75
2022/06/09 00:03:54;;;;;;;4.93;1.60;;;25.30;92.00;;;;;;5093386;28;20027;-74
2022/06/09 00:06:22;;;;;;;3.83;1.60;;;25.10;92.20;;;;;;5112064;28;20048;-74
2022/06/09 00:08:51;;;;;;;4.80;1.52;;;25.00;92.50;;;;;;5112004;28;20512;-74
2022/06/09 00:11:21;;;;;;;6.32;1.40;;;24.90;92.70;;;;;;5111955;28;20465;-74
2022/06/09 00:13:48;;;;;;;2.92;1.35;;;24.90;92.80;;;;;;5111594;28;20034;-74
2022/06/09 00:16:14;;;;;;;3.90;1.30;;;24.80;92.90;;;;;;5093190;28;20114;-75
2022/06/09 00:18:42;;;;;;;3.35;1.20;;;24.80;93.10;;;;;;5111901;28;20035;-74
2022/06/09 00:21:08;;;;;;;7.10;1.60;;;24.70;93.10;;;;;;5111610;28;20492;-74
2022/06/09 00:23:34;;;;;;;5.03;1.52;;;24.60;93.20;;;;;;5111834;28;20023;-73
2022/06/09 00:26:00;;;;;;;;;;;24.60;93.30;;;;;;5111726;28;20020;-74
2022/06/09 00:28:27;;;;;;;3.45;1.50;;;24.60;93.40;;;;;;5111516;28;19957;-74
2022/06/09 00:30:53;;;;;;;;;;;24.60;93.40;;;;;;5111796;28;20114;-74
2022/06/09 00:33:19;;;;;;;3.55;1.60;;;24.60;93.40;;;;;;5111919;28;19949;-74
2022/06/09 00:35:46;;;;;;;4.78;1.40;;;24.60;93.50;;;;;;5111398;28;20023;-74
2022/06/09 00:38:12;;;;;;;7.85;1.50;;;24.60;93.50;;;;;;5114684;28;20371;-74
2022/06/09 00:40:39;;;;;;;;;;;24.40;93.60;;;;;;5115637;28;20035;-75
2022/06/09 00:43:06;;;;;;;4.47;1.55;;;24.50;93.50;;;;;;5115677;28;19910;-75
2022/06/09 00:45:38;;;;;;;5.10;1.70;;;24.60;93.40;;;;;;5115308;28;20028;-75
2022/06/09 00:48:33;;;;;;;7.38;1.63;;;24.60;93.40;;;;;;5115472;28;20020;-75
2022/06/09 00:51:21;;;;;;;3.42;1.30;;;24.60;93.40;;;;;;5115263;28;20035;-75
2022/06/09 00:53:50;;;;;;;5.90;1.30;;;24.60;93.50;;;;;;5115478;28;20028;-74
2022/06/09 00:56:16;;;;;;;4.30;1.42;;;24.50;93.70;;;;;;5115255;28;20030;-75
2022/06/09 00:58:46;;;;;;;3.40;1.38;;;24.40;93.80;;;;;;5096457;28;20023;-75
2022/06/09 01:01:15;;;;;;;3.83;1.70;;;24.40;93.90;;;;;;5114629;28;20050;-75
2022/06/09 01:03:50;;;;;;;2.95;1.33;;;24.40;93.80;;;;;;5114751;28;20055;-75
2022/06/09 01:06:23;;;;;;;6.30;1.83;;;24.40;93.70;;;;;;5096561;28;20107;-74
2022/06/09 01:09:06;;;;;;;5.47;1.52;;;24.50;93.50;;;;;;5115117;28;20023;-75
2022/06/09 01:11:33;;;;;;;5.03;1.67;;;24.50;93.50;;;;;;5115008;28;20028;-75
2022/06/09 01:14:00;;;;;;;3.20;1.40;;;24.50;93.30;;;;;;5114687;28;20024;-75
2022/06/09 01:16:45;;;;;;;5.88;1.60;;;24.60;92.90;;;;;;5114676;28;20333;-75
2022/06/09 01:19:41;;;;;;;6.85;1.50;;;24.60;92.80;;;;;;5114421;28;20115;-75
2022/06/09 01:22:56;;;;;;;4.13;1.50;;;24.60;92.90;;;;;;5114773;28;20076;-75
2022/06/09 01:25:28;;;;;;;3.00;1.42;;;24.60;92.70;;;;;;5114439;28;20031;-74
2022/06/09 01:28:18;;;;;;;3.88;1.40;;;24.60;92.90;;;;;;5114760;28;20032;-75
2022/06/09 01:30:50;;;;;;;3.67;1.30;;;24.70;92.90;;;;;;5095693;28;20040;-75
2022/06/09 01:33:34;;;;;;;5.88;1.48;;;24.70;92.80;;;;;;5113650;28;20031;-75
2022/06/09 01:36:14;;;;;;;6.43;1.48;;;24.70;92.60;;;;;;5114486;28;20028;-75
2022/06/09 01:38:49;;;;;;;4.75;1.30;;;24.70;92.60;;;;;;5114145;28;20028;-75
2022/06/09 01:41:17;;;;;;;7.05;2.10;;;24.80;92.70;;;;;;5114343;28;20020;-75
2022/06/09 01:43:46;;;;;;;4.22;1.92;;;24.70;92.80;;;;;;5114023;28;20423;-75
2022/06/09 01:46:32;;;;;;;6.75;2.45;;;24.70;92.90;;;;;;5113972;28;20044;-75
2022/06/09 01:49:10;;;;;;;5.73;1.50;;;24.60;93.20;;;;;;5114223;28;20043;-75
2022/06/09 01:51:40;;;;;;;4.60;1.60;;;24.40;94.10;;;;;;5114099;28;20452;-75
2022/06/09 01:54:23;;;;;;;5.25;1.80;;;24.10;94.50;;;;;;5114000;28;20024;-74
2022/06/09 01:57:06;;;;;;;4.45;1.70;;;23.90;94.80;;;;;;5114168;28;20460;-74
2022/06/09 01:59:49;;;;;;;6.63;1.70;;;23.70;95.30;;;;;;5113882;28;20020;-74
2022/06/09 02:02:24;;;;;;;7.85;1.80;;;23.70;95.50;;;;;;5113578;28;20180;-74
2022/06/09 02:04:59;;;;;;;6.28;1.50;;;23.60;95.50;;;;;;5113854;28;20027;-74
2022/06/09 02:07:29;;;;;;;6.35;2.15;;;23.60;95.50;;;;;;5114016;28;20115;-74
2022/06/09 02:09:55;;;;;;;8.00;1.73;;;23.60;96.20;;;;;;5113535;28;20030;-74
2022/06/09 02:12:27;;;;;;;4.90;1.98;;;23.60;96.00;;;;;;5113456;28;20024;-74
2022/06/09 02:14:58;;;;;;;5.28;1.70;;;23.80;96.20;;;;;;5113794;28;20020;-74
2022/06/09 02:17:24;;;;;;;4.15;1.80;;;23.90;95.80;;;;;;5113659;28;20073;-74
2022/06/09 02:19:51;;;;;;;3.92;1.90;;;23.90;95.60;;;;;;5113408;28;20023;-74
2022/06/09 02:22:17;;;;;;;8.57;2.30;;;23.90;95.90;;;;;;5113492;28;20070;-74
2022/06/09 02:24:43;;;;;;;4.68;1.80;;;23.90;96.60;;;;;;5113619;28;20489;-74
2022/06/09 02:27:10;;;;;;;7.35;2.28;;;24.00;97.40;;;;;;5095025;28;20038;-74
2022/06/09 02:29:36;;;;;;;8.95;2.63;;;24.00;97.60;;;;;;5094606;28;20114;-74
2022/06/09 02:32:02;;;;;;;9.90;2.17;;;24.00;97.80;;;;;;5113176;28;20031;-74
2022/06/09 02:34:29;;;;;;;8.55;2.60;;;24.00;97.90;;;;;;5113312;28;20407;-74
2022/06/09 02:36:55;;;;;;;7.30;2.10;;;24.00;97.50;;;;;;5113157;28;20106;-74
2022/06/09 02:39:21;;;;;;;6.60;2.25;;;24.00;97.40;;;;;;5113134;28;20099;-74
2022/06/09 02:41:47;;;;;;;8.07;2.08;;;23.90;97.60;;;;;;5112903;28;20028;-74
2022/06/09 02:44:13;;;;;;;7.43;2.53;;;23.90;97.80;;;;;;5113398;28;20123;-74
2022/06/09 02:46:39;;;;;;;7.68;2.72;;;23.90;98.10;;;;;;5112864;28;20092;-74
2022/06/09 02:49:05;;;;;;;7.28;2.22;;;23.90;98.40;;;;;;5112845;28;20028;-74
2022/06/09 03:03:54;;;;;;;4.57;1.60;;;23.80;95.00;;;;;;5171200;27;20380;-70
2022/06/09 03:06:20;;;;;;;4.53;1.80;;;23.60;95.10;;;;;;5171030;27;20488;-69
2022/06/09 03:08:46;;;;;;;;;;;23.40;94.80;;;;;;5171898;27;20037;-70
2022/06/09 03:11:12;;;;;;;8.98;1.92;;;23.30;94.50;;;;;;5171028;27;20001;-68
2022/06/09 03:13:40;;;;;;;6.45;1.55;;;23.30;94.40;;;;;;5171637;27;20037;-69
2022/06/09 03:16:07;;;;;;;4.38;1.65;;;23.30;94.40;;;;;;5169938;27;20046;-69
2022/06/09 03:18:33;;;;;;;6.25;1.50;;;23.40;94.40;;;;;;5171232;27;20023;-69
2022/06/09 03:20:59;;;;;;;7.53;1.92;;;23.40;94.50;;;;;;5171146;27;20010;-69
2022/06/09 03:23:25;;;;;;;7.40;1.80;;;23.40;94.30;;;;;;5170822;27;20033;-69
2022/06/09 03:25:51;;;;;;;3.20;1.50;;;23.40;94.40;;;;;;5172275;27;20057;-68
2022/06/09 03:28:18;;;;;;;7.07;1.60;;;23.40;94.50;;;;;;5171858;27;20062;-68
2022/06/09 03:30:44;;;;;;;5.65;1.70;;;23.40;94.40;;;;;;5171879;27;20022;-69
2022/06/09 03:33:10;;;;;;;5.15;1.50;;;23.50;94.50;;;;;;5171498;27;20041;-69
2022/06/09 03:35:37;;;;;;;4.97;1.83;;;23.40;94.70;;;;;;5171341;27;20389;-69
2022/06/09 03:38:04;;;;;;;7.15;2.53;;;23.40;95.00;;;;;;5171169;27;20018;-69
2022/06/09 03:40:31;;;;;;;8.02;2.00;;;23.40;95.10;;;;;;5171515;27;20060;-69
2022/06/09 03:42:59;;;;;;;5.68;1.90;;;23.30;95.30;;;;;;5171154;27;20028;-69
2022/06/09 03:45:25;;;;;;;4.40;1.75;;;23.20;95.40;;;;;;5171022;27;20500;-68
2022/06/09 03:47:51;;;;;;;7.10;1.90;;;23.20;95.70;;;;;;5171552;27;20022;-68
2022/06/09 03:50:21;;;;;;;5.00;1.90;;;23.20;95.90;;;;;;5170617;27;20031;-69
2022/06/09 03:52:47;;;;;;;7.47;2.17;;;23.30;95.90;;;;;;5170539;27;20046;-69
2022/06/09 03:55:14;;;;;;;6.10;1.98;;;23.30;96.30;;;;;;5170884;27;20026;-69
2022/06/09 03:57:40;;;;;;;;;;;23.30;96.90;;;;;;5172022;27;20026;-69
2022/06/09 04:00:08;;;;;;;9.45;1.85;;;23.40;97.40;;;;;;5171058;27;20044;-69
2022/06/09 04:02:34;;;;;;;9.43;2.03;;;23.40;97.40;;;;;;5169938;27;20069;-69
2022/06/09 04:05:01;;;;;;;5.53;2.38;;;23.50;96.90;;;;;;5155040;27;20015;-69
2022/06/09 04:07:29;;;;;;;8.57;2.17;;;23.60;96.90;;;;;;5157120;27;20050;-69
2022/06/09 04:09:55;;;;;;;9.70;2.05;;;23.60;96.70;;;;;;5156767;27;20031;-69
2022/06/09 04:12:21;;;;;;;6.57;2.08;;;23.60;96.50;;;;;;5157107;27;20077;-69
2022/06/09 04:14:47;;;;;;;4.68;1.70;;;23.60;96.80;;;;;;5156502;27;20340;-69
2022/06/09 04:17:14;;;;;;;7.25;1.85;;;23.60;96.80;;;;;;5157057;27;20039;-70
2022/06/09 04:19:40;;;;;;;5.78;1.75;;;23.60;96.30;;;;;;5157242;27;20110;-69
2022/06/09 04:22:07;;;;;;;8.05;1.70;;;23.60;96.40;;;;;;5157782;27;20102;-69
2022/06/09 04:24:33;;;;;;;6.00;1.80;;;23.60;97.30;;;;;;5157646;27;20023;-69
2022/06/09 04:27:00;;;;;;;5.05;1.98;;;23.40;97.60;;;;;;5157625;27;20026;-69
2022/06/09 04:29:27;;;;;;;5.88;2.00;;;23.40;97.90;;;;;;5157004;27;20030;-69
2022/06/09 04:31:53;;;;;;;3.95;1.70;;;23.30;98.20;;;;;;5157513;27;20542;-69
2022/06/09 04:34:19;;;;;;;3.72;1.58;;;23.40;98.30;;;;;;5157696;27;20062;-68
2022/06/09 04:36:45;;;;;;;7.97;2.05;;;23.50;98.20;;;;;;5156923;27;20050;-69
2022/06/09 04:39:12;;;;;;;4.05;1.77;;;23.70;97.90;;;;;;5156831;27;20023;-69
2022/06/09 04:41:38;;;;;;;4.43;1.65;;;23.90;97.70;;;;;;5156899;27;20050;-69
2022/06/09 04:44:04;;;;;;;4.93;2.10;;;24.00;96.70;;;;;;5157255;27;20065;-69
2022/06/09 04:46:31;;;;;;;8.93;2.17;;;24.20;96.60;;;;;;5157227;27;20461;-67
2022/06/09 04:48:57;;;;;;;7.85;3.97;;;24.30;96.20;;;;;;5156569;27;20095;-67
2022/06/09 04:51:26;;;;;;;11.23;5.95;;;24.30;96.20;;;;;;5156507;27;20457;-68
2022/06/09 04:53:53;;;;;;;12.32;5.28;;;24.40;96.40;;;;;;5155215;27;20496;-68
2022/06/09 04:56:20;;;;;;;11.77;4.38;;;24.50;96.30;;;;;;5156455;27;20522;-67
2022/06/09 04:58:50;;;;;;;10.10;3.60;;;24.80;95.90;;;;;;5156641;27;20023;-68
2022/06/09 05:01:20;;;;;;;7.90;3.30;;;25.20;95.50;;;;;;5157173;27;20018;-68
2022/06/09 05:03:47;;;;;;;5.10;2.40;;;26.00;94.70;;;;;;5155931;27;20046;-69
2022/06/09 05:06:13;;;;;;;8.18;3.40;;;26.80;93.30;;;;;;5156441;27;20027;-68
2022/06/09 05:08:40;;;;;;;8.35;3.03;;;27.70;91.80;;;;;;5156226;27;20026;-68
2022/06/09 05:11:06;;;;;;;;;;;28.30;90.90;;;;;;5155180;27;20133;-68
2022/06/09 05:13:32;;;;;;;9.13;3.20;;;28.60;90.40;;;;;;5156103;27;19907;-69
2022/06/09 05:15:58;;;;;;;8.95;3.42;;;28.70;89.50;;;;;;5155328;27;20048;-67
2022/06/09 05:18:27;;;;;;;13.30;2.90;;;28.70;89.30;;;;;;5156500;27;20031;-69
2022/06/09 05:20:56;;;;;;;8.02;3.58;;;28.80;88.10;;;;;;5156763;27;20470;-68
2022/06/09 05:23:22;;;;;;;13.75;5.70;;;28.90;88.90;;;;;;5156168;27;20062;-69
2022/06/09 05:25:50;;;;;;;11.75;4.18;;;29.00;88.30;;;;;;5156151;27;20087;-69
2022/06/09 05:28:18;;;;;;;13.23;3.95;;;29.10;88.00;;;;;;5155854;27;20030;-69
2022/06/09 05:30:45;;;;;;;12.10;4.00;;;29.00;87.10;;;;;;5155291;27;20477;-67
2022/06/09 05:33:12;;;;;;;9.15;3.42;;;28.70;87.80;;;;;;5155825;27;20073;-68
2022/06/09 05:35:39;;;;;;;8.35;3.28;;;28.50;87.90;;;;;;5155790;27;20025;-68
2022/06/09 05:46:19;;;;;;;8.50;3.05;;;29.00;87.90;;;;;;5155621;27;20072;-70
2022/06/09 05:48:46;;;;;;;10.13;3.20;;;29.30;86.70;;;;;;5153126;27;20027;-69
2022/06/09 05:51:15;;;;;;;11.68;3.17;;;29.40;86.00;;;;;;5154272;27;20022;-69
2022/06/09 05:53:41;;;;;;;22.65;3.50;;;29.30;86.50;;;;;;5154218;27;20034;-69
2022/06/09 05:56:08;;;;;;;19.15;3.58;;;29.50;87.20;;;;;;5154664;27;20023;-68
2022/06/09 05:58:35;;;;;;;14.27;2.63;;;29.90;86.00;;;;;;5154228;27;20027;-68
2022/06/09 06:01:05;;;;;;;7.78;2.28;;;30.20;84.70;;;;;;5153838;27;20102;-69
2022/06/09 06:03:31;;;;;;;11.93;3.20;;;31.00;84.20;;;;;;5153823;27;20064;-68
2022/06/09 06:08:42;;;;;;;18.60;2.67;;;33.60;77.30;;;;;;5154145;27;20008;-70
2022/06/09 06:11:08;;;;;;;15.55;3.33;;;35.00;75.60;;;;;;5153915;27;20031;-68
2022/06/09 06:13:34;;;;;;;10.82;2.80;;;36.30;72.00;;;;;;5153235;27;20092;-69
2022/06/09 06:16:01;;;;;;;6.60;2.55;;;37.00;69.70;;;;;;5153677;27;20018;-68
2022/06/09 06:18:28;;;;;;;12.50;2.80;;;37.40;67.80;;;;;;5154381;27;20164;-69
2022/06/09 06:20:55;;;;;;;11.82;3.28;;;38.00;66.30;;;;;;5153753;27;20026;-68
2022/06/09 06:23:23;;;;;;;8.15;2.40;;;38.10;66.10;;;;;;5154464;27;20116;-69
2022/06/09 06:25:49;;;;;;;14.07;3.13;;;38.10;66.00;;;;;;5153580;27;20034;-69
2022/06/09 06:28:15;;;;;;;9.27;2.72;;;38.60;65.60;;;;;;5154095;27;20015;-69
2022/06/09 06:30:41;;;;;;;14.38;3.25;;;39.70;63.60;;;;;;5154216;27;20088;-69
2022/06/09 06:33:07;;;;;;;12.77;3.05;;;40.70;60.90;;;;;;5154072;27;20035;-68
2022/06/09 06:35:33;;;;;;;13.95;3.55;;;40.90;59.50;;;;;;5153753;27;20023;-70
2022/06/09 06:38:00;;;;;;;9.18;2.70;;;41.10;57.60;;;;;;5153591;27;20102;-68
2022/06/09 06:40:26;;;;;;;8.68;2.58;;;40.90;58.40;;;;;;5154219;27;20030;-69
2022/06/09 06:42:52;;;;;;;7.00;2.55;;;40.80;57.60;;;;;;5152179;27;20022;-69
2022/06/09 06:45:19;;;;;;;9.23;2.60;;;41.30;57.50;;;;;;5153545;27;20034;-69
2022/06/09 06:47:45;;;;;;;9.07;2.55;;;41.30;56.90;;;;;;5153997;27;20063;-69
2022/06/09 06:50:13;;;;;;;8.30;3.15;;;40.80;57.70;;;;;;5153542;27;20057;-68
2022/06/09 06:52:39;;;;;;;6.60;2.38;;;40.90;57.50;;;;;;5153332;27;20027;-69
2022/06/09 06:55:08;;;;;;;12.50;2.40;;;40.70;57.70;;;;;;5153655;27;20019;-70
2022/06/09 06:57:34;;;;;;;12.05;3.10;;;41.00;57.80;;;;;;5153204;27;20055;-69
2022/06/09 07:00:01;;;;;;;15.50;3.08;;;41.00;57.20;;;;;;5152556;27;20114;-68
2022/06/09 07:02:27;;;;;;;14.48;3.47;;;40.40;58.30;;;;;;5153219;27;20486;-68
2022/06/09 07:04:53;;;;;;;11.52;3.70;;;39.50;59.80;;;;;;5153615;27;20018;-69
2022/06/09 07:07:19;;;;;;;10.18;3.63;;;39.10;60.70;;;;;;5153036;27;20038;-69
2022/06/09 07:09:45;;;;;;;14.70;4.15;;;38.90;61.40;;;;;;5153662;27;20370;-70
2022/06/09 07:12:11;;;;;;;11.95;3.50;;;38.40;62.00;;;;;;5153249;27;20035;-68
2022/06/09 07:14:37;;;;;;;16.25;3.58;;;36.60;64.50;;;;;;5153133;27;20019;-69
2022/06/09 07:17:04;;;;;;;17.40;4.35;;;36.00;66.30;;;;;;5153436;27;20030;-68
2022/06/09 07:19:30;;;;;;;9.68;3.58;;;35.20;68.20;;;;;;5152665;27;20027;-68
2022/06/09 07:21:57;;;;;;;10.68;3.47;;;34.60;68.80;;;;;;5153305;27;20123;-69
2022/06/09 07:24:23;;;;;;;16.15;3.65;;;34.30;70.60;;;;;;5153014;27;20034;-70
2022/06/09 07:26:49;;;;;;;12.73;4.53;;;34.30;70.90;;;;;;5152845;27;20033;-69
2022/06/09 07:29:16;;;;;;;;;;;33.90;72.00;;;;;;5152708;27;20073;-69
2022/06/09 07:31:42;;;;;;;10.80;3.90;;;33.80;71.80;;;;;;5153121;27;20350;-69
2022/06/09 07:34:08;;;;;;;14.20;4.03;;;33.80;72.70;;;;;;5153177;27;20026;-69
2022/06/09 07:36:35;;;;;;;13.75;3.40;;;33.90;72.90;;;;;;5153107;27;20047;-71
2022/06/09 07:39:01;;;;;;;14.90;3.78;;;34.20;72.50;;;;;;5155089;27;20502;-69
2022/06/09 07:41:27;;;;;;;13.50;3.00;;;34.50;72.30;;;;;;5157434;27;20026;-69
2022/06/09 07:43:53;;;;;;;;;;;34.20;73.10;;;;;;5157174;27;20512;-70
2022/06/09 07:46:19;;;;;;;13.18;3.85;;;34.10;73.60;;;;;;5157245;27;19931;-69
2022/06/09 07:48:45;;;;;;;18.75;3.00;;;34.00;75.60;;;;;;5155016;27;20041;-68
2022/06/09 07:51:12;;;;;;;13.98;2.70;;;34.10;77.00;;;;;;5156581;27;20099;-68
2022/06/09 07:53:39;;;;;;;12.30;2.50;;;34.10;77.20;;;;;;5156683;27;20038;-68
2022/06/09 07:56:06;;;;;;;14.43;2.45;;;34.10;77.70;;;;;;5156803;27;20150;-70
2022/06/09 07:58:32;;;;;;;10.82;2.40;;;34.10;77.80;;;;;;5156786;27;20374;-70
2022/06/09 08:00:58;;;;;;;12.80;2.33;;;34.10;79.00;;;;;;5156940;27;20031;-68
2022/06/09 08:03:26;;;;;;;14.18;2.88;;;33.90;78.80;;;;;;5157091;27;20046;-69
2022/06/09 08:05:53;;;;;;;14.15;3.15;;;34.00;78.70;;;;;;5157268;27;20019;-70
2022/06/09 08:08:20;;;;;;;16.20;2.50;;;33.80;79.80;;;;;;5156646;27;20038;-70
2022/06/09 08:10:47;;;;;;;10.20;2.67;;;33.80;80.20;;;;;;5156400;27;20451;-70
2022/06/09 08:13:15;;;;;;;16.33;2.45;;;33.90;79.10;;;;;;5155843;27;20031;-69
2022/06/09 08:15:44;;;;;;;14.38;2.28;;;34.00;78.60;;;;;;5154270;27;20022;-70
2022/06/09 08:18:10;;;;;;;23.63;3.75;;;33.60;77.60;;;;;;5156390;27;20357;-71
2022/06/09 08:20:41;;;;;;;11.18;2.33;;;33.60;78.00;;;;;;5156996;27;20478;-68
2022/06/09 08:23:12;;;;;;;8.50;2.05;;;33.30;77.70;;;;;;5156207;27;20054;-69
2022/06/09 08:25:40;;;;;;;11.75;2.85;;;33.10;78.90;;;;;;5156121;27;20105;-69
2022/06/09 08:28:07;;;;;;;13.23;2.83;;;32.90;79.10;;;;;;5156322;27;20542;-68
2022/06/09 08:30:34;;;;;;;10.95;2.30;;;32.60;80.40;;;;;;5156617;27;20038;-69
2022/06/09 08:33:00;;;;;;;15.73;2.80;;;32.30;82.00;;;;;;5156313;27;20034;-68
2022/06/09 08:35:27;;;;;;;17.27;3.25;;;31.90;83.70;;;;;;5154668;27;20026;-69
2022/06/09 08:37:54;;;;;;;13.23;2.90;;;31.70;85.30;;;;;;5154554;27;20217;-68
2022/06/09 08:40:41;;;;;;;11.63;2.50;;;31.70;86.30;;;;;;5156114;27;20026;-69
2022/06/09 08:43:32;;;;;;;16.63;2.95;;;31.50;86.70;;;;;;5155304;27;20054;-69
2022/06/09 08:46:23;;;;;;;10.63;2.38;;;31.30;87.50;;;;;;5155711;27;20093;-69
2022/06/09 08:48:50;;;;;;;10.10;2.63;;;31.20;88.40;;;;;;5155310;27;20049;-69
2022/06/09 08:51:40;;;;;;;8.95;2.22;;;31.10;88.30;;;;;;5154704;27;20474;-69
2022/06/09 08:54:35;;;;;;;8.57;2.70;;;31.20;88.10;;;;;;5155126;27;20030;-69
2022/06/09 08:57:12;;;;;;;16.42;2.53;;;31.20;88.00;;;;;;5154563;27;20459;-68
2022/06/09 08:59:39;;;;;;;10.18;2.47;;;30.90;88.60;;;;;;5155034;27;20026;-68
2022/06/09 09:02:43;;;;;;;12.13;2.50;;;30.80;89.00;;;;;;5154705;27;20046;-68
2022/06/09 09:05:19;;;;;;;10.70;2.33;;;30.70;89.70;;;;;;5091183;28;20031;-68
2022/06/09 09:07:49;;;;;;;12.23;2.33;;;30.80;89.80;;;;;;5091354;28;20063;-69
2022/06/09 09:10:31;;;;;;;10.88;2.55;;;30.90;89.50;;;;;;5073799;28;20028;-69
2022/06/09 09:13:15;;;;;;;17.73;3.15;;;31.10;89.80;;;;;;5090655;28;20127;-69
2022/06/09 09:16:09;;;;;;;45.45;4.00;;;31.20;89.70;;;;;;5090992;28;20340;-69
2022/06/09 09:18:53;;;;;;;14.23;3.00;;;31.00;90.10;;;;;;5089176;28;20429;-68
2022/06/09 09:21:36;;;;;;;11.88;3.17;;;30.90;90.60;;;;;;5091444;28;20068;-70
2022/06/09 09:24:22;;;;;;;14.25;2.42;;;30.70;90.40;;;;;;5091312;28;20032;-69
2022/06/09 09:26:56;;;;;;;16.40;2.80;;;30.60;90.60;;;;;;5091397;28;20114;-68
2022/06/09 09:29:28;;;;;;;13.55;2.80;;;30.30;90.60;;;;;;5091128;28;20039;-70
2022/06/09 09:31:59;;;;;;;12.82;2.78;;;30.40;90.50;;;;;;5091020;28;20043;-69
2022/06/09 09:34:34;;;;;;;28.83;5.75;;;30.30;90.30;;;;;;5091348;28;20074;-70
2022/06/09 09:37:27;;;;;;;15.50;2.93;;;30.30;90.70;;;;;;5090897;28;20482;-69
2022/06/09 09:40:12;;;;;;;11.23;2.70;;;30.30;90.40;;;;;;5137763;27;20060;-69
2022/06/09 09:42:42;;;;;;;14.25;2.40;;;30.10;90.60;;;;;;5154307;27;20145;-69
2022/06/09 09:45:11;;;;;;;14.77;2.78;;;30.30;90.30;;;;;;5154324;27;20062;-69
2022/06/09 09:47:57;;;;;;;14.82;2.50;;;30.10;90.30;;;;;;5154920;27;20059;-70
2022/06/09 09:50:44;;;;;;;19.13;3.53;;;30.10;90.10;;;;;;5154776;27;20122;-70
2022/06/09 09:53:19;;;;;;;21.65;2.50;;;30.00;89.50;;;;;;5154500;27;20114;-70
2022/06/09 09:55:59;;;;;;;13.30;2.35;;;30.00;90.20;;;;;;5153910;27;20034;-70
2022/06/09 09:58:41;;;;;;;16.05;3.03;;;29.90;90.30;;;;;;5154464;27;20050;-68
2022/06/09 10:01:34;;;;;;;14.93;2.40;;;30.00;90.10;;;;;;5153437;27;20033;-68
2022/06/09 10:10:14;;;;;;;16.42;3.20;;;29.60;90.40;;;;;;5154131;27;20122;-69
2022/06/09 10:12:41;;;;;;;13.18;2.65;;;29.90;90.10;;;;;;5153906;27;20497;-69
2022/06/09 10:15:11;;;;;;;12.32;3.10;;;29.80;89.50;;;;;;5153320;27;20023;-69
2022/06/09 10:17:58;;;;;;;15.00;3.25;;;29.70;89.80;;;;;;5153990;27;20031;-69
2022/06/09 10:20:41;;;;;;;18.48;2.85;;;29.70;89.90;;;;;;5153597;27;20416;-70
2022/06/09 10:23:07;;;;;;;14.57;2.50;;;29.70;90.00;;;;;;5153719;27;20182;-70
2022/06/09 10:25:42;;;;;;;10.15;2.97;;;29.90;89.30;;;;;;5154265;27;20497;-70
2022/06/09 10:28:32;;;;;;;8.73;2.42;;;29.70;89.50;;;;;;5154473;27;20031;-68
2022/06/09 10:31:37;;;;;;;13.05;2.33;;;29.90;89.30;;;;;;5154661;27;20019;-69
2022/06/09 10:34:34;;;;;;;9.23;2.45;;;30.10;89.30;;;;;;5151709;27;20398;-70
2022/06/09 10:37:16;;;;;;;15.48;2.40;;;30.10;88.90;;;;;;5153457;27;20031;-70
2022/06/09 10:39:59;;;;;;;15.02;2.67;;;30.10;89.20;;;;;;5153482;27;20118;-69
2022/06/09 10:42:40;;;;;;;10.75;2.30;;;30.20;89.10;;;;;;5153198;27;20026;-69
2022/06/09 10:45:39;;;;;;;11.32;2.50;;;30.30;88.60;;;;;;5153673;27;20038;-69
2022/06/09 10:57:19;;;;;;;11.85;2.15;;;30.00;88.20;;;;;;5153988;27;20042;-69
2022/06/09 11:00:13;;;;;;;13.65;2.63;;;29.40;90.00;;;;;;5154189;27;20027;-69
2022/06/09 11:02:44;;;;;;;17.70;2.92;;;29.10;90.70;;;;;;5153102;27;20133;-68
2022/06/09 11:05:15;;;;;;;14.60;2.53;;;29.10;91.00;;;;;;5152594;27;20027;-70
2022/06/09 11:07:59;;;;;;;11.38;2.50;;;29.10;91.30;;;;;;5152907;27;20064;-69
2022/06/09 11:10:53;;;;;;;13.73;2.70;;;29.30;91.40;;;;;;5153737;27;20023;-68
2022/06/09 11:14:01;;;;;;;16.30;2.85;;;29.50;91.20;;;;;;5154567;27;20462;-68
2022/06/09 11:17:06;;;;;;;11.02;2.38;;;29.60;90.90;;;;;;5093786;28;20118;-69
2022/06/09 11:20:05;;;;;;;15.18;2.25;;;29.20;91.40;;;;;;5093894;28;20137;-68
2022/06/09 11:23:01;;;;;;;18.85;3.05;;;29.00;92.30;;;;;;5085147;28;20488;-68
2022/06/09 11:25:37;;;;;;;9.85;2.65;;;29.50;92.00;;;;;;5093697;28;20109;-69
2022/06/09 11:28:18;;;;;;;31.05;3.40;;;29.70;91.80;;;;;;5093851;28;20024;-68
2022/06/09 11:30:59;;;;;;;11.95;2.85;;;30.00;91.40;;;;;;5094256;28;20067;-69
2022/06/09 11:33:42;;;;;;;17.90;2.85;;;30.20;91.30;;;;;;5094027;28;20491;-70
2022/06/09 11:36:28;;;;;;;11.10;2.67;;;30.30;90.50;;;;;;5093853;28;20413;-68
2022/06/09 11:39:00;;;;;;;13.10;2.28;;;30.30;90.40;;;;;;5094017;28;20127;-69
2022/06/09 11:41:35;;;;;;;13.07;2.42;;;30.50;90.40;;;;;;5093906;28;20123;-70
2022/06/09 11:44:13;;;;;;;12.33;2.33;;;30.50;90.20;;;;;;5094208;28;20178;-69
2022/06/09 11:46:42;;;;;;;15.60;2.38;;;30.40;90.40;;;;;;5093974;28;20475;-69
2022/06/09 11:49:50;;;;;;;11.82;2.22;;;30.20;90.70;;;;;;5093620;28;20122;-70
2022/06/09 11:52:28;;;;;;;12.77;2.17;;;30.00;91.10;;;;;;5136860;27;20035;-68
2022/06/09 11:54:55;;;;;;;15.40;2.58;;;29.90;91.20;;;;;;5157652;27;20015;-68
2022/06/09 11:57:26;;;;;;;12.63;2.65;;;30.00;91.30;;;;;;5157655;27;20053;-71
2022/06/09 12:00:05;;;;;;;9.95;2.45;;;30.10;91.40;;;;;;5157611;27;20019;-69
2022/06/09 12:02:40;;;;;;;13.13;2.50;;;30.30;91.30;;;;;;5157625;27;20107;-68
2022/06/09 12:05:18;;;;;;;15.48;2.42;;;30.30;91.30;;;;;;5157218;27;20066;-69
2022/06/09 12:08:05;;;;;;;15.77;2.60;;;30.30;91.30;;;;;;5156854;27;20095;-70
2022/06/09 12:10:39;;;;;;;10.18;2.67;;;30.30;91.10;;;;;;5157387;27;20097;-69
2022/06/09 12:13:17;;;;;;;12.98;2.50;;;30.40;91.10;;;;;;5157431;27;20037;-69
2022/06/09 12:16:05;;;;;;;12.75;2.88;;;30.10;90.90;;;;;;5156792;27;20027;-69
2022/06/09 12:18:45;;;;;;;19.85;3.30;;;30.10;90.70;;;;;;5157631;27;20062;-69
2022/06/09 12:21:32;;;;;;;12.85;2.70;;;29.90;90.60;;;;;;5157836;27;20019;-69
2022/06/09 12:24:03;;;;;;;13.50;2.33;;;29.90;90.80;;;;;;5156030;27;20423;-69
2022/06/09 12:26:44;;;;;;;12.38;2.60;;;29.70;91.00;;;;;;5157042;27;20015;-69
2022/06/09 12:29:20;;;;;;;10.70;2.55;;;29.40;91.90;;;;;;5157020;27;20022;-68
2022/06/09 12:32:18;;;;;;;19.75;3.00;;;29.20;92.50;;;;;;5157125;27;20026;-68
2022/06/09 12:34:55;;;;;;;13.25;2.83;;;29.30;92.50;;;;;;5093039;28;20115;-70
2022/06/09 12:37:34;;;;;;;32.45;3.20;;;29.30;92.50;;;;;;5093754;28;20032;-70
2022/06/09 12:40:13;;;;;;;10.52;2.83;;;29.10;92.40;;;;;;5092966;28;20032;-68
2022/06/09 12:42:49;;;;;;;11.88;2.75;;;29.10;92.70;;;;;;5093338;28;20399;-69
2022/06/09 12:45:25;;;;;;;12.73;2.10;;;29.10;92.90;;;;;;5093486;28;20118;-69
2022/06/09 12:47:58;;;;;;;13.15;2.45;;;29.00;93.20;;;;;;5093546;28;20028;-69
2022/06/09 12:50:41;;;;;;;11.93;2.40;;;29.10;92.90;;;;;;5093377;28;20031;-69
2022/06/09 12:53:07;;;;;;;13.32;2.28;;;29.30;93.00;;;;;;5092921;28;20036;-70
2022/06/09 12:55:42;;;;;;;16.25;3.53;;;29.50;92.50;;;;;;5092691;28;20073;-70
2022/06/09 12:58:18;;;;;;;15.30;2.42;;;29.60;92.40;;;;;;5092343;28;20044;-68
2022/06/09 13:00:50;;;;;;;15.57;3.08;;;29.60;92.50;;;;;;5092706;28;20441;-69
2022/06/09 13:03:39;;;;;;;9.45;2.67;;;29.50;92.30;;;;;;5091836;28;20048;-69
2022/06/09 13:06:33;;;;;;;14.43;2.88;;;29.40;92.60;;;;;;5092591;28;20024;-69
2022/06/09 13:09:19;;;;;;;16.05;2.60;;;29.20;92.80;;;;;;5092451;28;20116;-68
2022/06/09 13:14:34;;;;;;;9.68;2.50;;;28.70;93.50;;;;;;5156065;27;20045;-69
2022/06/09 13:17:12;;;;;;;111.82;6.80;;;28.70;94.00;;;;;;5155628;27;20022;-69
2022/06/09 13:19:38;;;;;;;17.30;2.90;;;28.80;93.70;;;;;;5156371;27;20022;-69
2022/06/09 13:22:07;;;;;;;;;;;29.00;93.50;;;;;;5156926;27;20021;-70
2022/06/09 13:24:37;;;;;;;9.40;2.65;;;28.70;93.50;;;;;;5154508;27;19907;-69
2022/06/09 13:27:11;;;;;;;11.85;2.40;;;28.80;93.80;;;;;;5156032;27;20023;-69
2022/06/09 13:29:41;;;;;;;11.50;2.65;;;28.80;93.90;;;;;;5156239;27;20030;-68
2022/06/09 13:32:29;;;;;;;21.90;2.70;;;28.80;93.50;;;;;;5156061;27;20030;-70
2022/06/09 13:34:59;;;;;;;15.02;2.55;;;28.80;93.90;;;;;;5156368;27;20026;-70
2022/06/09 13:37:43;;;;;;;10.48;2.40;;;28.50;94.30;;;;;;5155178;27;20027;-69
2022/06/09 13:40:12;;;;;;;9.70;2.60;;;28.40;94.40;;;;;;5155642;27;20427;-69
2022/06/09 13:43:00;;;;;;;11.45;2.65;;;28.40;94.70;;;;;;5154227;27;20083;-68
2022/06/09 13:45:33;;;;;;;21.45;3.15;;;28.30;94.80;;;;;;5155744;27;20015;-69
2022/06/09 13:48:14;;;;;;;14.25;2.75;;;28.20;95.10;;;;;;5155830;27;20023;-69
2022/06/09 13:51:06;;;;;;;15.48;3.00;;;28.10;95.40;;;;;;5155533;27;20018;-69
2022/06/09 13:53:57;;;;;;;16.40;3.10;;;27.90;95.90;;;;;;5154799;27;20141;-70